createdAt,value
2022-10-14T00:01:13.832Z,12.77
2022-10-14T00:03:41.175Z,12.73
2022-10-14T00:06:12.107Z,12.73
2022-10-14T00:08:39.996Z,12.70
2022-10-14T00:11:12.983Z,12.70
2022-10-14T00:13:40.307Z,12.86
2022-10-14T00:16:14.261Z,12.44
2022-10-14T00:18:41.315Z,12.77
2022-10-14T00:21:09.806Z,12.71
2022-10-14T00:23:36.925Z,12.71
2022-10-14T00:26:04.256Z,12.71
2022-10-14T00:28:32.834Z,12.67
2022-10-14T00:31:01.383Z,12.71
2022-10-14T00:33:29.154Z,12.71
2022-10-14T00:36:04.102Z,12.74
2022-10-14T00:38:35.004Z,12.28
2022-10-14T00:41:02.806Z,12.67
2022-10-14T00:43:50.276Z,12.67
2022-10-14T00:46:17.507Z,12.63
2022-10-14T00:48:44.868Z,12.25
2022-10-14T00:51:12.063Z,12.33
2022-10-14T00:53:42.704Z,12.64
2022-10-14T00:56:11.288Z,12.60
2022-10-14T00:58:38.819Z,12.56
2022-10-14T01:01:07.854Z,12.61
2022-10-14T01:03:34.997Z,12.63
2022-10-14T01:06:31.945Z,12.64
2022-10-14T01:09:33.873Z,12.60
2022-10-14T01:12:30.305Z,12.62
2022-10-14T01:15:07.023Z,12.46
2022-10-14T01:18:23.282Z,12.72
2022-10-14T01:21:21.240Z,12.33
2022-10-14T01:24:02.637Z,12.71
2022-10-14T01:26:48.547Z,12.84
2022-10-14T01:29:32.496Z,12.77
2022-10-14T01:32:06.426Z,12.52
2022-10-14T01:34:51.027Z,12.74
2022-10-14T01:37:25.829Z,12.72
2022-10-14T01:39:59.337Z,12.71
2022-10-14T01:42:34.989Z,12.68
2022-10-14T01:45:15.972Z,12.45
2022-10-14T01:47:46.425Z,12.73
2022-10-14T01:50:17.271Z,12.68
2022-10-14T01:52:50.772Z,12.31
2022-10-14T01:55:25.090Z,12.67
2022-10-14T01:57:56.092Z,12.65
2022-10-14T02:00:25.005Z,12.62
2022-10-14T02:02:52.086Z,12.29
2022-10-14T02:05:32.023Z,12.63
2022-10-14T02:08:10.832Z,12.68
2022-10-14T02:11:08.434Z,12.62
2022-10-14T02:13:44.485Z,12.66
2022-10-14T02:16:31.090Z,12.62
2022-10-14T02:19:16.895Z,12.62
2022-10-14T02:21:51.870Z,12.53
2022-10-14T02:24:24.705Z,12.27
2022-10-14T02:26:55.779Z,12.55
2022-10-14T02:29:25.360Z,12.54
2022-10-14T02:31:55.085Z,12.52
2022-10-14T02:34:25.489Z,12.19
2022-10-14T02:36:54.426Z,12.62
2022-10-14T02:39:28.949Z,12.59
2022-10-14T02:41:57.842Z,12.61
2022-10-14T02:44:24.898Z,12.60
2022-10-14T02:46:52.684Z,12.58
2022-10-14T02:49:19.781Z,12.64
2022-10-14T02:51:46.787Z,12.61
2022-10-14T02:54:14.120Z,12.59
2022-10-14T02:56:41.750Z,12.55
2022-10-14T02:59:08.788Z,12.60
2022-10-14T03:01:37.797Z,12.37
2022-10-14T03:04:06.581Z,12.64
2022-10-14T03:06:33.625Z,12.66
2022-10-14T03:09:01.045Z,12.59
2022-10-14T03:11:28.064Z,12.30
2022-10-14T03:14:01.669Z,12.60
2022-10-14T03:16:29.067Z,12.58
2022-10-14T03:18:56.421Z,12.63
2022-10-14T03:21:38.308Z,12.65
2022-10-14T03:24:09.477Z,12.67
2022-10-14T03:26:37.343Z,12.69
2022-10-14T03:29:04.562Z,12.68
2022-10-14T03:31:48.773Z,12.72
2022-10-14T03:34:28.850Z,12.68
2022-10-14T03:37:04.899Z,12.50
2022-10-14T03:39:34.725Z,12.50
2022-10-14T03:42:05.712Z,12.72
2022-10-14T03:44:40.892Z,12.73
2022-10-14T03:47:16.189Z,12.78
2022-10-14T03:49:44.596Z,12.75
2022-10-14T03:52:19.382Z,12.65
2022-10-14T03:54:54.934Z,12.78
2022-10-14T03:57:22.148Z,12.82
2022-10-14T03:59:52.620Z,12.82
2022-10-14T04:02:21.693Z,12.84
2022-10-14T04:04:57.086Z,12.84
2022-10-14T04:07:27.334Z,12.84
2022-10-14T04:09:57.461Z,12.93
2022-10-14T04:12:24.969Z,12.91
2022-10-14T04:15:00.065Z,12.84
2022-10-14T04:17:33.062Z,12.83
2022-10-14T04:20:06.430Z,12.90
2022-10-14T04:22:33.647Z,12.83
2022-10-14T04:25:01.146Z,12.73
2022-10-14T04:27:28.198Z,12.87
2022-10-14T04:30:03.057Z,12.84
2022-10-14T04:32:40.483Z,12.86
2022-10-14T04:35:09.534Z,12.85
2022-10-14T04:37:38.856Z,12.82
2022-10-14T04:40:16.577Z,12.85
2022-10-14T04:42:47.232Z,12.86
2022-10-14T04:45:25.116Z,12.67
2022-10-14T04:47:59.265Z,12.91
2022-10-14T04:50:27.356Z,12.92
2022-10-14T04:53:14.029Z,12.93
2022-10-14T04:55:57.687Z,12.98
2022-10-14T04:58:25.084Z,13.07
2022-10-14T05:00:55.333Z,13.09
2022-10-14T05:03:34.460Z,13.00
2022-10-14T05:06:01.509Z,12.98
2022-10-14T05:08:29.785Z,12.98
2022-10-14T05:10:59.474Z,12.92
2022-10-14T05:13:36.973Z,12.94
2022-10-14T05:16:08.793Z,12.85
2022-10-14T05:18:35.913Z,12.83
2022-10-14T05:21:07.959Z,12.88
2022-10-14T05:24:01.229Z,12.90
2022-10-14T05:26:31.574Z,12.85
2022-10-14T05:29:01.883Z,12.42
2022-10-14T05:31:29.844Z,12.88
2022-10-14T05:34:17.099Z,12.85
2022-10-14T05:36:45.363Z,12.88
2022-10-14T05:39:13.325Z,12.87
2022-10-14T05:41:40.610Z,12.97
2022-10-14T05:44:11.385Z,12.92
2022-10-14T05:46:39.487Z,12.98
2022-10-14T05:49:06.872Z,12.87
2022-10-14T05:51:37.413Z,12.98
2022-10-14T05:54:12.287Z,12.71
2022-10-14T05:56:42.072Z,13.00
2022-10-14T05:59:10.355Z,13.00
2022-10-14T06:01:38.262Z,12.95
2022-10-14T06:04:05.309Z,12.97
2022-10-14T06:06:32.865Z,12.95
2022-10-14T06:09:00.008Z,12.96
2022-10-14T06:11:27.022Z,12.96
2022-10-14T06:13:54.071Z,12.99
2022-10-14T06:16:21.198Z,13.03
2022-10-14T06:18:53.481Z,13.08
2022-10-14T06:21:22.333Z,13.15
2022-10-14T06:23:49.415Z,13.05
2022-10-14T06:26:16.411Z,13.08
2022-10-14T06:28:43.694Z,13.08
2022-10-14T06:31:10.699Z,12.77
2022-10-14T06:33:38.175Z,13.14
2022-10-14T06:36:06.898Z,13.10
2022-10-14T06:38:33.908Z,13.28
2022-10-14T06:41:00.980Z,13.30
2022-10-14T06:43:28.061Z,13.39
2022-10-14T06:45:57.493Z,13.40
2022-10-14T06:48:24.478Z,13.38
2022-10-14T06:50:52.392Z,13.48
2022-10-14T06:53:19.391Z,13.44
2022-10-14T06:55:46.569Z,13.09
2022-10-14T06:58:13.745Z,13.50
2022-10-14T07:00:44.426Z,13.55
2022-10-14T07:03:14.869Z,13.63
2022-10-14T07:05:41.818Z,13.61
2022-10-14T07:08:11.381Z,13.53
2022-10-14T07:10:41.527Z,13.51
2022-10-14T07:13:08.619Z,13.51
2022-10-14T07:15:37.959Z,13.59
2022-10-14T07:18:07.310Z,13.58
2022-10-14T07:20:34.513Z,13.57
2022-10-14T07:23:01.697Z,13.54
2022-10-14T07:25:28.694Z,13.62
2022-10-14T07:27:55.677Z,13.63
2022-10-14T07:30:22.833Z,13.80
2022-10-14T07:32:50.225Z,13.97
2022-10-14T07:35:19.010Z,13.77
2022-10-14T07:37:46.673Z,14.16
2022-10-14T07:40:14.077Z,14.23
2022-10-14T07:42:41.072Z,14.11
2022-10-14T07:45:09.742Z,14.38
2022-10-14T07:47:36.764Z,14.40
2022-10-14T07:50:04.027Z,14.25
2022-10-14T07:52:31.018Z,14.30
2022-10-14T07:54:58.080Z,14.44
2022-10-14T07:57:25.490Z,14.36
2022-10-14T07:59:52.618Z,14.42
2022-10-14T08:02:19.705Z,14.37
2022-10-14T08:04:47.345Z,14.41
2022-10-14T08:07:14.748Z,14.37
2022-10-14T08:09:41.879Z,14.27
2022-10-14T08:12:08.857Z,14.18
2022-10-14T08:14:36.190Z,14.22
2022-10-14T08:17:03.441Z,14.13
2022-10-14T08:19:30.608Z,14.18
2022-10-14T08:21:57.642Z,14.18
2022-10-14T08:24:24.677Z,14.24
2022-10-14T08:26:58.039Z,14.30
2022-10-14T08:29:26.272Z,14.32
2022-10-14T08:31:55.186Z,14.41
2022-10-14T08:34:24.245Z,14.29
2022-10-14T08:36:52.393Z,14.22
2022-10-14T08:39:20.624Z,14.27
2022-10-14T08:42:12.573Z,14.28
2022-10-14T08:45:08.724Z,14.15
2022-10-14T08:47:40.171Z,14.26
2022-10-14T08:50:17.280Z,14.24
2022-10-14T08:53:13.494Z,14.28
2022-10-14T08:55:44.908Z,13.83
2022-10-14T08:58:31.718Z,14.23
2022-10-14T09:01:21.653Z,14.39
2022-10-14T09:03:56.509Z,14.35
2022-10-14T09:06:30.180Z,14.38
2022-10-14T09:09:04.680Z,14.29
2022-10-14T09:11:39.708Z,14.30
2022-10-14T09:14:09.717Z,13.92
2022-10-14T09:16:39.569Z,14.33
2022-10-14T09:19:15.039Z,14.40
2022-10-14T09:21:54.017Z,14.44
2022-10-14T09:24:25.317Z,14.46
2022-10-14T09:27:00.782Z,14.51
2022-10-14T09:29:30.567Z,14.24
2022-10-14T09:32:11.182Z,14.54
2022-10-14T09:34:44.736Z,14.43
2022-10-14T09:37:30.795Z,14.76
2022-10-14T09:40:17.836Z,14.90
2022-10-14T09:42:51.200Z,14.93
2022-10-14T09:45:22.552Z,15.26
2022-10-14T09:47:51.419Z,15.39
2022-10-14T09:50:29.237Z,15.57
2022-10-14T09:53:02.008Z,15.63
2022-10-14T09:55:30.241Z,15.55
2022-10-14T09:58:14.037Z,15.04
2022-10-14T10:00:41.362Z,15.22
2022-10-14T10:03:23.337Z,15.46
2022-10-14T10:06:00.229Z,15.55
2022-10-14T10:08:27.495Z,15.25
2022-10-14T10:11:03.776Z,15.41
2022-10-14T10:13:41.344Z,15.48
2022-10-14T10:16:19.731Z,15.36
2022-10-14T10:18:47.000Z,15.26
2022-10-14T10:21:22.193Z,15.28
2022-10-14T10:23:55.675Z,15.22
2022-10-14T10:26:26.541Z,15.33
2022-10-14T10:28:57.422Z,15.48
2022-10-14T10:31:30.735Z,15.49
2022-10-14T10:34:16.076Z,15.49
2022-10-14T10:36:52.194Z,15.51
2022-10-14T10:39:30.827Z,15.50
2022-10-14T10:42:00.941Z,15.39
2022-10-14T10:44:53.556Z,15.31
2022-10-14T10:48:04.124Z,15.40
2022-10-14T10:50:49.920Z,15.40
2022-10-14T10:53:32.114Z,15.48
2022-10-14T10:56:14.154Z,15.60
2022-10-14T10:59:01.711Z,15.63
2022-10-14T11:01:50.362Z,15.46
2022-10-14T11:04:20.500Z,15.45
2022-10-14T11:07:18.277Z,15.35
2022-10-14T11:10:27.523Z,15.12
2022-10-14T11:13:06.628Z,15.15
2022-10-14T11:15:44.887Z,14.81
2022-10-14T11:18:34.977Z,15.12
2022-10-14T11:21:33.813Z,15.14
2022-10-14T11:24:07.644Z,15.17
2022-10-14T11:26:59.413Z,15.20
2022-10-14T11:29:46.808Z,15.27
2022-10-14T11:32:31.495Z,15.26
2022-10-14T11:35:14.876Z,15.28
2022-10-14T11:37:53.133Z,15.32
2022-10-14T11:40:46.653Z,15.36
2022-10-14T11:43:43.662Z,15.57
2022-10-14T11:46:17.951Z,15.02
2022-10-14T11:49:22.611Z,15.61
2022-10-14T11:51:55.739Z,15.47
2022-10-14T11:54:28.358Z,15.37
2022-10-14T11:56:55.818Z,15.35
2022-10-14T11:59:37.221Z,15.37
2022-10-14T12:02:17.844Z,15.35
2022-10-14T12:04:52.417Z,15.33
2022-10-14T12:07:26.868Z,15.24
2022-10-14T12:10:00.542Z,15.25
2022-10-14T12:12:30.200Z,15.20
2022-10-14T12:15:06.016Z,15.11
2022-10-14T12:17:46.335Z,15.07
2022-10-14T12:20:27.637Z,15.21
2022-10-14T12:22:57.249Z,14.96
2022-10-14T12:25:29.646Z,15.34
2022-10-14T12:27:57.341Z,15.39
2022-10-14T12:30:33.275Z,15.33
2022-10-14T12:33:06.937Z,15.32
2022-10-14T12:35:52.481Z,15.33
2022-10-14T12:38:21.412Z,15.11
2022-10-14T12:40:49.146Z,15.22
2022-10-14T12:43:23.568Z,15.20
2022-10-14T12:46:13.210Z,15.21
2022-10-14T12:48:51.789Z,14.95
2022-10-14T12:51:22.449Z,15.28
2022-10-14T12:54:05.277Z,15.32
2022-10-14T12:56:52.554Z,15.36
2022-10-14T12:59:25.394Z,15.03
2022-10-14T13:01:58.301Z,14.82
2022-10-14T13:04:26.243Z,15.23
2022-10-14T13:07:38.982Z,15.13
2022-10-14T13:10:26.695Z,15.16
2022-10-14T13:12:54.410Z,15.15
2022-10-14T13:15:48.011Z,15.09
2022-10-14T13:18:36.197Z,15.21
2022-10-14T13:21:07.832Z,15.16
2022-10-14T13:23:43.393Z,15.10
2022-10-14T13:26:28.895Z,14.25
2022-10-14T13:29:06.019Z,15.24
2022-10-14T13:31:45.021Z,15.00
2022-10-14T13:34:24.112Z,15.24
2022-10-14T13:37:03.478Z,15.19
2022-10-14T13:39:33.226Z,14.96
2022-10-14T13:42:01.709Z,15.17
2022-10-14T13:44:28.759Z,15.11
2022-10-14T13:46:56.657Z,15.15
2022-10-14T13:49:33.390Z,15.13
2022-10-14T13:52:05.096Z,15.16
2022-10-14T13:54:32.363Z,15.10
2022-10-14T13:57:53.606Z,15.14
2022-10-14T14:02:54.544Z,15.02
2022-10-14T14:08:30.554Z,14.89
2022-10-14T14:11:15.130Z,15.12
2022-10-14T14:13:54.523Z,15.14
2022-10-14T14:16:29.587Z,15.22
2022-10-14T14:19:07.765Z,15.12
2022-10-14T14:21:35.822Z,15.07
2022-10-14T14:24:13.778Z,15.08
2022-10-14T14:26:40.884Z,15.15
2022-10-14T14:29:17.292Z,15.14
2022-10-14T14:34:36.779Z,15.09
2022-10-14T14:37:25.058Z,15.03
2022-10-14T14:40:18.454Z,15.02
2022-10-14T14:42:47.950Z,14.99
2022-10-14T14:45:21.840Z,15.02
2022-10-14T14:47:53.432Z,14.91
2022-10-14T14:50:31.375Z,14.88
2022-10-14T14:53:13.722Z,14.86
2022-10-14T14:55:45.995Z,14.91
2022-10-14T14:58:22.685Z,14.51
2022-10-14T15:00:51.491Z,14.86
2022-10-14T15:03:18.589Z,14.91
2022-10-14T15:05:57.027Z,14.90
2022-10-14T15:08:29.751Z,14.87
2022-10-14T15:10:58.469Z,14.85
2022-10-14T15:13:30.138Z,14.86
2022-10-14T15:15:57.314Z,14.86
2022-10-14T15:18:28.722Z,14.91
2022-10-14T15:21:16.573Z,14.87
2022-10-14T15:23:49.535Z,14.92
2022-10-14T15:26:34.220Z,14.92
2022-10-14T15:29:14.484Z,14.97
2022-10-14T15:31:44.670Z,14.92
2022-10-14T15:34:18.217Z,14.80
2022-10-14T15:36:45.592Z,14.98
2022-10-14T15:39:13.806Z,15.05
2022-10-14T15:41:41.672Z,15.01
2022-10-14T15:44:08.814Z,14.91
2022-10-14T15:46:55.744Z,14.89
2022-10-14T15:49:52.245Z,14.89
2022-10-14T15:52:23.014Z,14.93
2022-10-14T15:54:53.712Z,14.85
2022-10-14T15:57:21.254Z,14.90
2022-10-14T15:59:51.941Z,14.88
2022-10-14T16:02:25.887Z,14.92
2022-10-14T16:05:18.676Z,14.80
2022-10-14T16:07:40.933Z,14.97
2022-10-14T16:10:10.992Z,14.86
2022-10-14T16:12:38.003Z,14.92
2022-10-14T16:15:20.315Z,14.88
2022-10-14T16:17:50.247Z,14.86
2022-10-14T16:20:20.932Z,14.82
2022-10-14T16:22:48.034Z,14.81
2022-10-14T16:25:23.140Z,14.84
2022-10-14T16:27:50.778Z,14.89
2022-10-14T16:30:17.823Z,14.84
2022-10-14T16:32:45.057Z,14.89
2022-10-14T16:35:12.233Z,14.69
2022-10-14T16:37:40.907Z,14.83
2022-10-14T16:40:10.450Z,14.86
2022-10-14T16:42:37.413Z,14.82
2022-10-14T16:45:05.680Z,14.77
2022-10-14T16:47:32.844Z,14.71
2022-10-14T16:50:00.041Z,14.72
2022-10-14T16:52:27.241Z,14.74
2022-10-14T16:54:54.362Z,14.70
2022-10-14T16:57:21.313Z,14.62
2022-10-14T16:59:48.461Z,14.59
2022-10-14T17:02:16.501Z,14.44
2022-10-14T17:04:46.244Z,14.59
2022-10-14T17:07:14.820Z,14.65
2022-10-14T17:09:41.845Z,14.61
2022-10-14T17:12:12.892Z,14.60
2022-10-14T17:14:41.396Z,14.41
2022-10-14T17:17:10.256Z,14.54
2022-10-14T17:19:38.319Z,14.59
2022-10-14T17:22:05.559Z,14.59
2022-10-14T17:24:32.655Z,14.63
2022-10-14T17:27:04.335Z,14.59
2022-10-14T17:29:31.681Z,14.69
2022-10-14T17:31:58.693Z,14.45
2022-10-14T17:34:25.812Z,14.44
2022-10-14T17:36:53.351Z,14.60
2022-10-14T17:39:27.462Z,14.51
2022-10-14T17:41:57.194Z,14.64
2022-10-14T17:44:24.677Z,14.72
2022-10-14T17:46:51.662Z,14.74
2022-10-14T17:49:18.730Z,14.82
2022-10-14T17:51:45.745Z,14.70
2022-10-14T17:54:13.471Z,14.49
2022-10-14T17:56:41.005Z,14.54
2022-10-14T17:59:10.723Z,14.54
2022-10-14T18:02:00.822Z,14.58
2022-10-14T18:04:24.771Z,14.68
2022-10-14T18:06:52.848Z,14.65
2022-10-14T18:09:19.881Z,14.57
2022-10-14T18:12:07.737Z,14.49
2022-10-14T18:14:35.950Z,14.45
2022-10-14T18:17:02.950Z,14.44
2022-10-14T18:19:29.995Z,14.40
2022-10-14T18:21:57.780Z,14.42
2022-10-14T18:24:24.917Z,14.25
2022-10-14T18:26:53.191Z,14.29
2022-10-14T18:29:20.563Z,14.29
2022-10-14T18:34:24.846Z,14.10
2022-10-14T18:36:51.828Z,14.28
2022-10-14T18:39:20.518Z,14.30
2022-10-14T18:41:47.865Z,14.25
2022-10-14T18:44:15.152Z,14.17
2022-10-14T18:46:42.200Z,14.18
2022-10-14T18:49:11.255Z,14.23
2022-10-14T18:51:40.142Z,14.13
2022-10-14T18:54:15.744Z,13.71
2022-10-14T18:56:44.382Z,14.17
2022-10-14T18:59:18.027Z,14.01
2022-10-14T19:01:46.161Z,14.20
2022-10-14T19:04:15.325Z,14.10
2022-10-14T19:06:46.061Z,14.13
2022-10-14T19:09:13.705Z,14.11
2022-10-14T19:11:41.529Z,14.15
2022-10-14T19:14:09.752Z,14.10
2022-10-14T19:16:38.860Z,14.18
2022-10-14T19:19:11.999Z,14.22
2022-10-14T19:21:39.624Z,14.31
2022-10-14T19:24:10.192Z,14.26
2022-10-14T19:26:40.333Z,14.22
2022-10-14T19:29:11.527Z,14.26
2022-10-14T19:31:40.072Z,14.39
2022-10-14T19:34:10.227Z,14.17
2022-10-14T19:36:39.117Z,14.31
2022-10-14T19:39:08.892Z,14.31
2022-10-14T19:41:43.064Z,14.24
2022-10-14T19:44:11.680Z,13.86
2022-10-14T19:46:38.858Z,14.17
2022-10-14T19:49:06.341Z,14.21
2022-10-14T19:51:34.398Z,14.29
2022-10-14T19:54:01.873Z,14.35
2022-10-14T19:56:29.815Z,14.23
2022-10-14T19:58:58.711Z,14.35
2022-10-14T20:01:28.562Z,14.29
2022-10-14T20:03:56.254Z,14.36
2022-10-14T20:06:24.354Z,14.39
2022-10-14T20:08:51.527Z,14.41
2022-10-14T20:11:21.174Z,14.48
2022-10-14T20:13:48.664Z,14.44
2022-10-14T20:16:16.397Z,14.38
2022-10-14T20:18:43.673Z,14.37
2022-10-14T20:21:13.096Z,14.18
2022-10-14T20:23:40.375Z,14.36
2022-10-14T20:26:11.357Z,14.30
2022-10-14T20:28:39.595Z,14.33
2022-10-14T20:31:09.093Z,14.34
2022-10-14T20:33:36.542Z,14.26
2022-10-14T20:36:10.718Z,14.38
2022-10-14T20:38:38.969Z,14.60
2022-10-14T20:41:07.821Z,14.50
2022-10-14T20:43:35.165Z,14.50
2022-10-14T20:46:02.249Z,14.61
2022-10-14T20:48:29.238Z,14.57
2022-10-14T20:50:56.476Z,14.48
2022-10-14T20:54:19.967Z,14.47
2022-10-14T20:56:49.146Z,14.35
2022-10-14T20:59:16.133Z,14.54
2022-10-14T21:01:43.133Z,14.01
2022-10-14T21:04:10.161Z,14.54
2022-10-14T21:06:38.611Z,14.54
2022-10-14T21:09:06.125Z,14.44
2022-10-14T21:11:33.116Z,14.44
2022-10-14T21:14:00.743Z,14.46
2022-10-14T21:16:29.407Z,14.45
2022-10-14T21:19:07.963Z,14.26
2022-10-14T21:21:38.229Z,14.40
2022-10-14T21:24:06.392Z,14.37
2022-10-14T21:26:33.776Z,14.14
2022-10-14T21:29:05.041Z,14.43
2022-10-14T21:31:32.243Z,14.34
2022-10-14T21:34:05.354Z,14.32
2022-10-14T21:36:33.094Z,14.36
2022-10-14T21:39:03.771Z,14.24
2022-10-14T21:41:30.850Z,14.32
2022-10-14T21:43:59.234Z,14.27
2022-10-14T21:46:27.402Z,14.05
2022-10-14T21:48:58.858Z,14.39
2022-10-14T21:51:30.395Z,14.29
2022-10-14T21:53:57.874Z,14.42
2022-10-14T21:56:26.253Z,14.07
2022-10-14T21:58:53.407Z,14.09
2022-10-14T22:01:22.932Z,14.41
2022-10-14T22:03:55.385Z,14.39
2022-10-14T22:06:22.671Z,13.97
2022-10-14T22:08:51.663Z,14.34
2022-10-14T22:11:23.121Z,14.31
2022-10-14T22:13:51.276Z,14.27
2022-10-14T22:16:18.645Z,14.28
2022-10-14T22:18:47.385Z,14.25
2022-10-14T22:21:16.140Z,14.17
2022-10-14T22:23:43.550Z,14.14
2022-10-14T22:26:15.558Z,14.02
2022-10-14T22:28:42.716Z,14.11
2022-10-14T22:31:11.674Z,14.07
2022-10-14T22:33:39.706Z,13.96
2022-10-14T22:36:06.881Z,14.13
2022-10-14T22:38:35.286Z,14.09
2022-10-14T22:41:03.564Z,14.06
2022-10-14T22:43:31.305Z,13.86
2022-10-14T22:46:03.336Z,14.16
2022-10-14T22:48:31.360Z,14.16
2022-10-14T22:51:10.213Z,14.15
2022-10-14T22:53:38.727Z,14.17
2022-10-14T22:56:08.622Z,14.11
2022-10-14T22:58:35.994Z,13.78
2022-10-14T23:01:14.531Z,14.14
2022-10-14T23:03:42.448Z,14.12
2022-10-14T23:06:12.361Z,14.10
2022-10-14T23:08:40.558Z,14.13
2022-10-14T23:11:10.055Z,14.08
2022-10-14T23:13:37.064Z,14.06
2022-10-14T23:16:06.822Z,14.05
2022-10-14T23:18:36.644Z,14.11
2022-10-14T23:21:28.214Z,14.18
2022-10-14T23:23:57.410Z,13.91
2022-10-14T23:26:28.289Z,14.17
2022-10-14T23:28:57.479Z,14.19
2022-10-14T23:31:27.501Z,14.22
2022-10-14T23:33:57.492Z,14.19
2022-10-14T23:36:24.570Z,14.16
2022-10-14T23:38:52.469Z,13.91
2022-10-14T23:41:21.892Z,14.22
2022-10-14T23:43:50.355Z,14.29
2022-10-14T23:46:17.840Z,14.19
2022-10-14T23:48:51.483Z,13.66
2022-10-14T23:51:28.208Z,14.07
2022-10-14T23:53:55.267Z,13.90
2022-10-14T23:56:22.265Z,14.08
2022-10-14T23:58:49.250Z,14.08
